Cotes De Bretagne — FW3973 — position and weather

sailwx.info

Track history (hours):
 
Tides and Currents Weather Stations Pressure Air Temp Water Temp Dewpoint Dewpoint Depression Visibility Wind Speed Wind Dir Waves Ship Positions

Cotes De Bretagne

Last reported at 2018-Jun-24 01:30 UTC. Time now 2018-Jun-24 01:34 UTC.
Position N 46°28' W 001°47'.

Length 75 m; draft 4.1 m.

Type: Dredging. MMSI: 227003850.

Date/timePositionNaut miles runAvg speedWind from/ knotsBaromVisibWave heightAir tempDewpointWater temp
2018-Jun-24 01:30N 46°28' W 001°47'2 4.6
2018-Jun-24 01:00N 46°30' W 001°48'0 0.0
2018-Jun-24 00:29N 46°30' W 001°48'0 0.0
2018-Jun-24 00:00N 46°30' W 001°48'0 0.0
2018-Jun-23 23:30N 46°30' W 001°48'1 1.2
2018-Jun-23 23:00N 46°29' W 001°48'3 6.8
2018-Jun-23 22:30N 46°26' W 001°46'4 8.8
2018-Jun-23 22:00N 46°22' W 001°45'4 8.6
2018-Jun-23 21:30N 46°18' W 001°43'4 8.9
2018-Jun-23 21:00N 46°14' W 001°41'5 8.9
2018-Jun-23 20:29N 46°09' W 001°39'4 8.5
2018-Jun-23 20:00N 46°05' W 001°36'0 0.2
2018-Jun-23 19:30N 46°05' W 001°36'0 0.2
2018-Jun-23 19:00N 46°05' W 001°36'0 0.4
2018-Jun-23 18:30N 46°05' W 001°35'0 0.1
2018-Jun-23 18:00N 46°05' W 001°36'0 0.0
2018-Jun-23 17:30N 46°05' W 001°36'2 4.0
2018-Jun-23 17:00N 46°05' W 001°33'611.9
2018-Jun-23 16:30N 46°05' W 001°24'611.6
2018-Jun-23 16:00N 46°03' W 001°16'611.2
2018-Jun-23 15:30N 45°60' W 001°10'510.4
2018-Jun-23 15:00N 45°57' W 001°03'2 0.5
2018-Jun-23 10:13N 45°57' W 000°60'1 6.5
2018-Jun-23 09:59N 45°58' W 001°01'4 7.3
2018-Jun-23 09:30N 45°58' W 001°06'4 8.5
2018-Jun-23 08:59N 46°00' W 001°11'4 9.3
2018-Jun-23 08:30N 46°04' W 001°15'3 5.2
2018-Jun-23 08:00N 46°05' W 001°18'2 4.3
2018-Jun-23 07:30N 46°06' W 001°21'3 5.5
2018-Jun-23 07:00N 46°06' W 001°25'3 6.0
2018-Jun-23 06:30N 46°05' W 001°29'3 5.6
2018-Jun-23 06:00N 46°05' W 001°33'2 3.1
2018-Jun-23 05:30N 46°05' W 001°35'0 0.1
2018-Jun-23 05:00N 46°05' W 001°35'0 0.7
2018-Jun-23 04:31N 46°05' W 001°36'0 0.3
2018-Jun-23 04:00N 46°05' W 001°36'0 0.4
2018-Jun-23 03:30N 46°05' W 001°35'2 3.9
2018-Jun-23 03:00N 46°07' W 001°37'5 9.3
2018-Jun-23 02:31N 46°11' W 001°40'5 9.6
2018-Jun-23 02:00N 46°15' W 001°42'5 9.7
2018-Jun-23 01:31N 46°20' W 001°45'5 9.8
2018-Jun-23 01:00N 46°25' W 001°47'5 9.4
2018-Jun-23 00:30N 46°29' W 001°47'1 1.4
2018-Jun-23 00:00N 46°30' W 001°48'0 0.0
2018-Jun-22 23:30N 46°30' W 001°48'0 0.0
2018-Jun-22 23:01N 46°30' W 001°48'0 0.0
2018-Jun-22 22:30N 46°30' W 001°48'2 3.4
2018-Jun-22 22:00N 46°28' W 001°47'4 7.8
2018-Jun-22 21:30N 46°24' W 001°46'5 8.5
2018-Jun-22 20:57N 46°20' W 001°45'4 8.6
2018-Jun-22 20:27N 46°15' W 001°44'4 8.9
2018-Jun-22 20:00N 46°12' W 001°42'5 9.0
2018-Jun-22 19:25N 46°07' W 001°38'3 5.8
2018-Jun-22 18:58N 46°05' W 001°36'0 0.1
2018-Jun-22 18:30N 46°05' W 001°36'0 0.1
2018-Jun-22 18:00N 46°05' W 001°36'0 0.2
2018-Jun-22 17:30N 46°05' W 001°36'0 0.1
2018-Jun-22 17:00N 46°05' W 001°35'0 0.3
2018-Jun-22 16:30N 46°05' W 001°36'2 3.6
2018-Jun-22 16:00N 46°05' W 001°33'611.8
2018-Jun-22 15:30N 46°06' W 001°25'611.5
2018-Jun-22 15:00N 46°03' W 001°17'611.3
2018-Jun-22 14:30N 45°60' W 001°10'610.2
2018-Jun-22 13:57N 45°57' W 001°03'3 4.9
2018-Jun-22 13:26N 45°56' W 001°00'2 0.6
2018-Jun-22 09:51N 45°58' W 000°60'5 6.6
2018-Jun-22 09:09N 45°58' W 001°06'1 8.1
2018-Jun-22 09:00N 45°59' W 001°08'4 8.7
2018-Jun-22 08:31N 46°01' W 001°13'4 8.5
2018-Jun-22 08:00N 46°06' W 001°15'0 0.5
2018-Jun-22 07:30N 46°05' W 001°14'0 0.0
2018-Jun-22 07:00N 46°05' W 001°14'0 0.0
2018-Jun-22 06:30N 46°05' W 001°14'2 4.3
2018-Jun-22 06:00N 46°05' W 001°17'4 8.5
2018-Jun-22 05:30N 46°05' W 001°24'4 7.7
2018-Jun-22 05:00N 46°05' W 001°29'3 6.2
2018-Jun-22 04:30N 46°05' W 001°34'2 3.0
2018-Jun-22 04:00N 46°05' W 001°36'0 0.6
2018-Jun-22 03:30N 46°05' W 001°35'0 0.6
2018-Jun-22 03:00N 46°05' W 001°36'0 0.1
2018-Jun-22 02:30N 46°05' W 001°36'0 0.5
2018-Jun-22 02:00N 46°05' W 001°35'2 4.5
2018-Jun-22 01:30N 46°07' W 001°38'6 9.2
2018-Jun-22 00:53N 46°11' W 001°42'5 9.1
2018-Jun-22 00:23N 46°15' W 001°46'3 8.9
2018-Jun-22 00:00N 46°18' W 001°49'5 9.5
2018-Jun-21 23:30N 46°22' W 001°53'5 9.9
2018-Jun-21 23:00N 46°26' W 001°56'5 9.5
2018-Jun-21 22:30N 46°30' W 002°01'5 9.6
2018-Jun-21 22:00N 46°34' W 002°05'510.1
2018-Jun-21 21:30N 46°38' W 002°09'48 9.6
2018-Jun-21 16:29N 47°15' W 002°54'5 9.4
2018-Jun-21 16:00N 47°18' W 002°59'5 9.2
2018-Jun-21 15:30N 47°22' W 003°03'5 9.6
2018-Jun-21 15:00N 47°25' W 003°08'5 9.4
2018-Jun-21 14:30N 47°29' W 003°13'5 9.9
2018-Jun-21 14:00N 47°33' W 003°17'510.2
2018-Jun-21 13:30N 47°37' W 003°21'5 9.7
2018-Jun-21 13:00N 47°42' W 003°22'3 6.9
2018-Jun-21 12:30N 47°45' W 003°19'0 0.0
2018-Jun-21 12:00N 47°45' W 003°19'0 0.0
2018-Jun-21 11:30N 47°45' W 003°19'0 0.0
2018-Jun-21 11:00N 47°45' W 003°19'0 0.0
2018-Jun-21 10:30N 47°45' W 003°19'0 0.0
2018-Jun-21 10:00N 47°45' W 003°19'0 0.0
2018-Jun-21 09:30N 47°45' W 003°19'1 1.6
2018-Jun-21 09:00N 47°44' W 003°20'1 1.4
2018-Jun-21 08:30N 47°44' W 003°21'0 0.0
2018-Jun-21 08:00N 47°44' W 003°21'0 0.0
2018-Jun-21 07:31N 47°44' W 003°21'0 0.0
2018-Jun-21 07:00N 47°44' W 003°21'0 0.0
2018-Jun-21 06:31N 47°44' W 003°21'0 0.0
2018-Jun-21 06:01N 47°44' W 003°21'0 0.0
2018-Jun-21 05:31N 47°44' W 003°21'0 0.0
2018-Jun-21 05:01N 47°44' W 003°21'0 0.0
2018-Jun-21 04:30N 47°44' W 003°21'2 4.8
2018-Jun-21 04:01N 47°42' W 003°22'3 5.2
2018-Jun-21 03:30N 47°39' W 003°23'4 8.7
2018-Jun-21 03:00N 47°36' W 003°20'4 8.5
2018-Jun-21 02:30N 47°32' W 003°16'4 8.5
2018-Jun-21 02:00N 47°29' W 003°12'5 9.2
2018-Jun-21 01:30N 47°25' W 003°08'4 8.8
2018-Jun-21 01:00N 47°22' W 003°04'4 8.3
2018-Jun-21 00:30N 47°19' W 002°60'4 8.4
2018-Jun-20 23:59N 47°16' W 002°55'4 8.5
2018-Jun-20 23:30N 47°13' W 002°51'4 8.5
2018-Jun-20 23:00N 47°09' W 002°48'4 8.1
2018-Jun-20 22:30N 47°06' W 002°44'4 8.0
2018-Jun-20 22:00N 47°03' W 002°40'6 7.9
2018-Jun-20 21:12N 46°58' W 002°34'21 8.0
2018-Jun-20 18:32N 46°42' W 002°13'3 9.2
2018-Jun-20 18:15N 46°40' W 002°11'3 9.1
2018-Jun-20 17:58N 46°38' W 002°09'4 8.7
2018-Jun-20 17:30N 46°35' W 002°05'4 8.7
2018-Jun-20 17:00N 46°31' W 002°02'4 8.7
2018-Jun-20 16:30N 46°28' W 001°58'4 8.8
2018-Jun-20 16:00N 46°24' W 001°54'5 9.0
2018-Jun-20 15:30N 46°21' W 001°50'4 8.8
2018-Jun-20 15:00N 46°17' W 001°47'5 8.9
2018-Jun-20 14:28N 46°13' W 001°43'4 9.0
2018-Jun-20 14:00N 46°10' W 001°39'5 9.0
2018-Jun-20 13:30N 46°06' W 001°36'1 1.1
2018-Jun-20 13:00N 46°05' W 001°36'0 0.2
2018-Jun-20 12:30N 46°05' W 001°36'0 0.1
2018-Jun-20 12:00N 46°05' W 001°36'0 0.1
2018-Jun-20 11:30N 46°05' W 001°36'0 0.4
2018-Jun-20 11:00N 46°05' W 001°36'0 0.1
2018-Jun-20 10:30N 46°05' W 001°36'0 0.1
2018-Jun-20 09:59N 46°05' W 001°36'2 4.9
2018-Jun-20 09:30N 46°07' W 001°38'5 9.8
2018-Jun-20 08:59N 46°11' W 001°42'510.1
2018-Jun-20 08:30N 46°15' W 001°46'510.3
2018-Jun-20 08:00N 46°19' W 001°50'510.5
2018-Jun-20 07:30N 46°24' W 001°54'510.1
2018-Jun-20 07:00N 46°28' W 001°59'510.2
2018-Jun-20 06:30N 46°32' W 002°02'510.2
2018-Jun-20 06:00N 46°36' W 002°07'510.0
2018-Jun-20 05:28N 46°41' W 002°11'5 9.7
2018-Jun-20 04:58N 46°45' W 002°15'5 9.6
2018-Jun-20 04:29N 46°48' W 002°20'5 9.8
2018-Jun-20 03:58N 46°52' W 002°25'5 9.4
2018-Jun-20 03:24N 46°56' W 002°30'4 9.4
2018-Jun-20 03:00N 46°59' W 002°33'5 9.3
2018-Jun-20 02:29N 47°02' W 002°38'4 9.2
2018-Jun-20 02:00N 47°06' W 002°43'5 9.4
2018-Jun-20 01:27N 47°09' W 002°48'5 9.6
2018-Jun-20 00:55N 47°13' W 002°53'4 9.9
2018-Jun-20 00:30N 47°16' W 002°57'510.0
2018-Jun-20 00:00N 47°20' W 003°01'5 9.9
2018-Jun-19 23:29N 47°24' W 003°06'5 9.6
2018-Jun-19 23:00N 47°27' W 003°11'510.1
2018-Jun-19 22:30N 47°31' W 003°16'510.4
2018-Jun-19 22:00N 47°36' W 003°20'510.0
2018-Jun-19 21:30N 47°41' W 003°22'4 8.7
2018-Jun-19 21:00N 47°45' W 003°20'0 0.7
2018-Jun-19 20:30N 47°45' W 003°19'0 0.0
2018-Jun-19 20:00N 47°45' W 003°19'0 0.0
2018-Jun-19 19:30N 47°45' W 003°19'0 0.0
2018-Jun-19 18:59N 47°45' W 003°19'0 0.0
2018-Jun-19 18:30N 47°45' W 003°19'1 2.7
2018-Jun-19 18:00N 47°44' W 003°21'0 0.0
2018-Jun-19 17:30N 47°44' W 003°21'0 0.0
2018-Jun-19 17:00N 47°44' W 003°21'0 0.0
2018-Jun-19 16:30N 47°44' W 003°21'0 0.0
2018-Jun-19 16:00N 47°44' W 003°21'0 0.0
2018-Jun-19 15:30N 47°44' W 003°21'0 0.0
2018-Jun-19 15:00N 47°44' W 003°21'0 0.1
2018-Jun-19 14:30N 47°44' W 003°21'3 6.8
2018-Jun-19 14:00N 47°41' W 003°24'4 7.6
2018-Jun-19 13:30N 47°38' W 003°21'5 9.2
2018-Jun-19 13:00N 47°34' W 003°17'5 9.1
2018-Jun-19 12:30N 47°31' W 003°13'5 9.4
2018-Jun-19 12:00N 47°27' W 003°09'5 9.7
2018-Jun-19 11:30N 47°23' W 003°05'5 9.0
2018-Jun-19 11:00N 47°19' W 003°01'5 9.0
2018-Jun-19 10:30N 47°16' W 002°56'4 9.0
2018-Jun-19 10:00N 47°13' W 002°52'5 9.2
2018-Jun-19 09:30N 47°09' W 002°47'5 8.7
2018-Jun-19 08:58N 47°06' W 002°43'4 8.5
2018-Jun-19 08:30N 47°03' W 002°39'4 8.4
2018-Jun-19 08:00N 46°60' W 002°35'4 8.4
2018-Jun-19 07:29N 46°56' W 002°31'4 8.1
2018-Jun-19 07:00N 46°53' W 002°27'5 8.5
2018-Jun-19 06:25N 46°50' W 002°22'4 8.2
2018-Jun-19 05:54N 46°47' W 002°18'3 8.4
2018-Jun-19 05:30N 46°44' W 002°15'8 9.0
2018-Jun-19 04:35N 46°38' W 002°07'1 8.6
2018-Jun-19 04:30N 46°37' W 002°07'4 8.6
2018-Jun-19 04:01N 46°34' W 002°03'4 8.5
2018-Jun-19 03:30N 46°30' W 001°60'4 8.5
2018-Jun-19 03:00N 46°27' W 001°56'4 8.9
2018-Jun-19 02:30N 46°23' W 001°52'5 9.1
2018-Jun-19 02:00N 46°19' W 001°48'5 9.2
2018-Jun-19 01:30N 46°16' W 001°44'5 9.1
2018-Jun-19 01:00N 46°12' W 001°40'5 9.1
2018-Jun-19 00:30N 46°08' W 001°37'3 5.3
2018-Jun-18 23:58N 46°06' W 001°35'0 0.2
2018-Jun-18 23:28N 46°06' W 001°35'1 1.7
2018-Jun-18 23:00N 46°06' W 001°33'0 0.1
2018-Jun-18 22:30N 46°06' W 001°33'0 0.7
2018-Jun-18 22:01N 46°06' W 001°34'1 1.5
2018-Jun-18 21:30N 46°06' W 001°35'4 5.9
2018-Jun-18 20:53N 46°09' W 001°38'510.3
2018-Jun-18 20:26N 46°13' W 001°41'410.2
2018-Jun-18 20:00N 46°17' W 001°44'510.4
2018-Jun-18 19:30N 46°22' W 001°46'510.2
2018-Jun-18 19:00N 46°27' W 001°47'3 6.4
2018-Jun-18 18:30N 46°30' W 001°48'0 0.2
2018-Jun-18 18:00N 46°30' W 001°48'0 0.0
2018-Jun-18 17:30N 46°30' W 001°48'0 0.0
2018-Jun-18 17:00N 46°30' W 001°48'1 1.7
2018-Jun-18 16:30N 46°29' W 001°47'3 5.2
2018-Jun-18 16:00N 46°27' W 001°47'3 6.0
2018-Jun-18 15:30N 46°24' W 001°46'3 6.2
2018-Jun-18 15:00N 46°21' W 001°45'3 5.9
2018-Jun-18 14:30N 46°18' W 001°43'3 6.7
2018-Jun-18 14:00N 46°15' W 001°42'3 6.5
2018-Jun-18 13:30N 46°12' W 001°40'3 6.7
2018-Jun-18 13:00N 46°09' W 001°38'3 6.5
2018-Jun-18 12:30N 46°06' W 001°36'1 1.7
2018-Jun-18 12:00N 46°05' W 001°36'0 0.2
2018-Jun-18 11:30N 46°05' W 001°36'0 0.5
2018-Jun-18 11:00N 46°05' W 001°36'0 0.4
2018-Jun-18 10:29N 46°05' W 001°36'0 0.2
2018-Jun-18 10:00N 46°05' W 001°35'3 5.3
2018-Jun-18 09:30N 46°07' W 001°38'610.2
2018-Jun-18 08:54N 46°13' W 001°41'410.3
2018-Jun-18 08:30N 46°17' W 001°43'510.4
2018-Jun-18 08:00N 46°22' W 001°46'510.3
2018-Jun-18 07:30N 46°27' W 001°47'3 6.5
2018-Jun-18 07:00N 46°30' W 001°48'0 0.1
2018-Jun-18 06:30N 46°30' W 001°48'0 0.0
2018-Jun-18 06:01N 46°30' W 001°48'0 0.0
2018-Jun-18 05:31N 46°30' W 001°48'0 0.7
2018-Jun-18 05:01N 46°30' W 001°48'4 7.0
2018-Jun-18 04:30N 46°26' W 001°48'4 8.0
2018-Jun-18 04:01N 46°22' W 001°46'4 8.3
2018-Jun-18 03:31N 46°18' W 001°43'4 8.9
2018-Jun-18 03:00N 46°14' W 001°41'4 8.7
2018-Jun-18 02:31N 46°11' W 001°38'4 8.8
2018-Jun-18 02:00N 46°07' W 001°35'1 2.0
2018-Jun-18 01:30N 46°06' W 001°34'1 1.4
2018-Jun-18 01:00N 46°06' W 001°33'0 1.0
2018-Jun-18 00:30N 46°06' W 001°34'0 0.8
2018-Jun-18 00:00N 46°06' W 001°35'0 0.7
2018-Jun-17 23:28N 46°06' W 001°35'0 0.6
2018-Jun-17 23:00N 46°06' W 001°36'3 5.4
2018-Jun-17 22:29N 46°07' W 001°39'1010.6
2018-Jun-17 21:34N 46°14' W 001°49'110.6
2018-Jun-17 21:29N 46°14' W 001°50'610.9
2018-Jun-17 20:56N 46°18' W 001°57'511.3
2018-Jun-17 20:31N 46°22' W 002°02'611.1
2018-Jun-17 20:01N 46°26' W 002°07'611.1
2018-Jun-17 19:30N 46°29' W 002°13'6510.8
2018-Jun-17 13:30N 47°13' W 003°25'710.5
2018-Jun-17 12:52N 47°17' W 003°32'410.4
2018-Jun-17 12:29N 47°20' W 003°36'610.8
2018-Jun-17 11:57N 47°23' W 003°43'510.7
2018-Jun-17 11:30N 47°26' W 003°49'2811.0
2018-Jun-17 08:58N 47°43' W 004°21'1211.1
2018-Jun-17 07:53N 47°52' W 004°33'1111.6
2018-Jun-17 06:59N 48°00' W 004°43'511.3
2018-Jun-17 06:30N 48°05' W 004°45'510.7
2018-Jun-17 06:01N 48°11' W 004°46'510.7
2018-Jun-17 05:30N 48°16' W 004°46'5 9.6
2018-Jun-17 05:00N 48°21' W 004°48'4 7.6
2018-Jun-17 04:30N 48°24' W 004°49'4 8.6
2018-Jun-17 04:01N 48°29' W 004°50'4 8.0
2018-Jun-17 03:30N 48°33' W 004°50'4 7.2
2018-Jun-17 03:00N 48°36' W 004°47'4 7.5
2018-Jun-17 02:30N 48°38' W 004°43'5 9.4
2018-Jun-17 02:00N 48°40' W 004°37'2411.4
2018-Jun-16 23:52N 48°47' W 004°01'5 9.2
2018-Jun-16 23:23N 48°43' W 003°57'0 0.6
2018-Jun-16 22:42N 48°43' W 003°58'33 1.9
2018-Jun-16 05:07N 48°52' W 003°09'0 2.7
2018-Jun-16 04:58N 48°53' W 003°09'0 0.2
2018-Jun-16 04:21N 48°53' W 003°09'3 7.4
2018-Jun-16 04:00N 48°55' W 003°11'13 4.6
2018-Jun-16 01:13N 48°54' W 002°52'6 1.8
2018-Jun-15 21:58N 48°49' W 002°49'7 1.2
2018-Jun-15 16:12N 48°43' W 002°44'3 8.4
2018-Jun-15 15:48N 48°46' W 002°46'4 9.5
2018-Jun-15 15:25N 48°49' W 002°49'0 0.0
2018-Jun-15 14:54N 48°49' W 002°49'0 0.0
2018-Jun-15 14:15N 48°49' W 002°49'0 0.2
2018-Jun-15 13:58N 48°49' W 002°49'50 4.8
2018-Jun-15 03:33N 48°47' W 004°05'711.8
2018-Jun-15 02:58N 48°45' W 004°15'712.0
2018-Jun-15 02:22N 48°43' W 004°26'512.1
2018-Jun-15 01:58N 48°42' W 004°33'511.4
2018-Jun-15 01:30N 48°40' W 004°40'611.1
2018-Jun-15 01:00N 48°37' W 004°47'612.2
2018-Jun-15 00:30N 48°31' W 004°50'611.2
2018-Jun-15 00:00N 48°25' W 004°50'612.2
2018-Jun-14 23:30N 48°19' W 004°47'510.7
2018-Jun-14 23:00N 48°14' W 004°45'510.5
2018-Jun-14 22:30N 48°09' W 004°45'510.1
2018-Jun-14 22:00N 48°04' W 004°46'5 9.8
2018-Jun-14 21:30N 47°59' W 004°43'610.3
2018-Jun-14 20:58N 47°55' W 004°38'13 9.6
2018-Jun-14 19:38N 47°45' W 004°25'6 8.9
2018-Jun-14 18:58N 47°44' W 004°17'9 7.9
2018-Jun-14 17:53N 47°49' W 004°07'8 7.9
2018-Jun-14 16:49N 47°58' W 004°06'0 0.5
2018-Jun-14 15:58N 47°58' W 004°06'5 2.7
2018-Jun-14 13:59N 47°53' W 004°07'6 5.5
2018-Jun-14 12:58N 47°48' W 004°03'12 7.5
2018-Jun-14 11:21N 47°42' W 003°47'2 7.1
2018-Jun-14 11:00N 47°41' W 003°44'3 6.9
2018-Jun-14 10:30N 47°39' W 003°40'4 7.1
2018-Jun-14 10:00N 47°37' W 003°36'4 7.1
2018-Jun-14 09:30N 47°34' W 003°32'4 7.6
2018-Jun-14 09:00N 47°32' W 003°27'4 7.7
2018-Jun-14 08:30N 47°30' W 003°23'4 8.2
2018-Jun-14 08:00N 47°27' W 003°18'4 8.5
2018-Jun-14 07:30N 47°25' W 003°13'5 9.0
2018-Jun-14 07:00N 47°22' W 003°07'4 8.1
2018-Jun-14 06:30N 47°20' W 003°02'4 7.4
2018-Jun-14 06:00N 47°17' W 002°58'4 7.9
2018-Jun-14 05:30N 47°14' W 002°55'4 8.0
2018-Jun-14 05:00N 47°11' W 002°51'5 8.3
2018-Jun-14 04:26N 47°08' W 002°46'4 8.4
2018-Jun-14 03:58N 47°05' W 002°42'4 8.5
2018-Jun-14 03:30N 47°02' W 002°39'4 8.5
2018-Jun-14 03:00N 46°59' W 002°34'4 8.3
2018-Jun-14 02:30N 46°56' W 002°30'4 8.1
2018-Jun-14 01:58N 46°53' W 002°26'  
Track history (hours):
 
Tides and Currents Weather Stations Pressure Air Temp Water Temp Dewpoint Dewpoint Depression Visibility Wind Speed Wind Dir Waves Ship Positions

Cotes De Bretagne

Last reported at 2018-Jun-24 01:30 UTC. Time now 2018-Jun-24 01:34 UTC.
Position N 46°28' W 001°47'.

Length 75 m; draft 4.1 m.

Type: Dredging. MMSI: 227003850.

Date/timePositionNaut miles runAvg speedWind from/ knotsBaromVisibWave heightAir tempDewpointWater temp
2018-Jun-24 01:30N 46°28' W 001°47'2 4.6
2018-Jun-24 01:00N 46°30' W 001°48'0 0.0
2018-Jun-24 00:29N 46°30' W 001°48'0 0.0
2018-Jun-24 00:00N 46°30' W 001°48'0 0.0
2018-Jun-23 23:30N 46°30' W 001°48'1 1.2
2018-Jun-23 23:00N 46°29' W 001°48'3 6.8
2018-Jun-23 22:30N 46°26' W 001°46'4 8.8
2018-Jun-23 22:00N 46°22' W 001°45'4 8.6
2018-Jun-23 21:30N 46°18' W 001°43'4 8.9
2018-Jun-23 21:00N 46°14' W 001°41'5 8.9
2018-Jun-23 20:29N 46°09' W 001°39'4 8.5
2018-Jun-23 20:00N 46°05' W 001°36'0 0.2
2018-Jun-23 19:30N 46°05' W 001°36'0 0.2
2018-Jun-23 19:00N 46°05' W 001°36'0 0.4
2018-Jun-23 18:30N 46°05' W 001°35'0 0.1
2018-Jun-23 18:00N 46°05' W 001°36'0 0.0
2018-Jun-23 17:30N 46°05' W 001°36'2 4.0
2018-Jun-23 17:00N 46°05' W 001°33'611.9
2018-Jun-23 16:30N 46°05' W 001°24'611.6
2018-Jun-23 16:00N 46°03' W 001°16'611.2
2018-Jun-23 15:30N 45°60' W 001°10'510.4
2018-Jun-23 15:00N 45°57' W 001°03'2 0.5
2018-Jun-23 10:13N 45°57' W 000°60'1 6.5
2018-Jun-23 09:59N 45°58' W 001°01'4 7.3
2018-Jun-23 09:30N 45°58' W 001°06'4 8.5
2018-Jun-23 08:59N 46°00' W 001°11'4 9.3
2018-Jun-23 08:30N 46°04' W 001°15'3 5.2
2018-Jun-23 08:00N 46°05' W 001°18'2 4.3
2018-Jun-23 07:30N 46°06' W 001°21'3 5.5
2018-Jun-23 07:00N 46°06' W 001°25'3 6.0
2018-Jun-23 06:30N 46°05' W 001°29'3 5.6
2018-Jun-23 06:00N 46°05' W 001°33'2 3.1
2018-Jun-23 05:30N 46°05' W 001°35'0 0.1
2018-Jun-23 05:00N 46°05' W 001°35'0 0.7
2018-Jun-23 04:31N 46°05' W 001°36'0 0.3
2018-Jun-23 04:00N 46°05' W 001°36'0 0.4
2018-Jun-23 03:30N 46°05' W 001°35'2 3.9
2018-Jun-23 03:00N 46°07' W 001°37'5 9.3
2018-Jun-23 02:31N 46°11' W 001°40'5 9.6
2018-Jun-23 02:00N 46°15' W 001°42'5 9.7
2018-Jun-23 01:31N 46°20' W 001°45'5 9.8
2018-Jun-23 01:00N 46°25' W 001°47'5 9.4
2018-Jun-23 00:30N 46°29' W 001°47'1 1.4
2018-Jun-23 00:00N 46°30' W 001°48'0 0.0
2018-Jun-22 23:30N 46°30' W 001°48'0 0.0
2018-Jun-22 23:01N 46°30' W 001°48'0 0.0
2018-Jun-22 22:30N 46°30' W 001°48'2 3.4
2018-Jun-22 22:00N 46°28' W 001°47'4 7.8
2018-Jun-22 21:30N 46°24' W 001°46'5 8.5
2018-Jun-22 20:57N 46°20' W 001°45'4 8.6
2018-Jun-22 20:27N 46°15' W 001°44'4 8.9
2018-Jun-22 20:00N 46°12' W 001°42'5 9.0
2018-Jun-22 19:25N 46°07' W 001°38'3 5.8
2018-Jun-22 18:58N 46°05' W 001°36'0 0.1
2018-Jun-22 18:30N 46°05' W 001°36'0 0.1
2018-Jun-22 18:00N 46°05' W 001°36'0 0.2
2018-Jun-22 17:30N 46°05' W 001°36'0 0.1
2018-Jun-22 17:00N 46°05' W 001°35'0 0.3
2018-Jun-22 16:30N 46°05' W 001°36'2 3.6
2018-Jun-22 16:00N 46°05' W 001°33'611.8
2018-Jun-22 15:30N 46°06' W 001°25'611.5
2018-Jun-22 15:00N 46°03' W 001°17'611.3
2018-Jun-22 14:30N 45°60' W 001°10'610.2
2018-Jun-22 13:57N 45°57' W 001°03'3 4.9
2018-Jun-22 13:26N 45°56' W 001°00'2 0.6
2018-Jun-22 09:51N 45°58' W 000°60'5 6.6
2018-Jun-22 09:09N 45°58' W 001°06'1 8.1
2018-Jun-22 09:00N 45°59' W 001°08'4 8.7
2018-Jun-22 08:31N 46°01' W 001°13'4 8.5
2018-Jun-22 08:00N 46°06' W 001°15'0 0.5
2018-Jun-22 07:30N 46°05' W 001°14'0 0.0
2018-Jun-22 07:00N 46°05' W 001°14'0 0.0
2018-Jun-22 06:30N 46°05' W 001°14'2 4.3
2018-Jun-22 06:00N 46°05' W 001°17'4 8.5
2018-Jun-22 05:30N 46°05' W 001°24'4 7.7
2018-Jun-22 05:00N 46°05' W 001°29'3 6.2
2018-Jun-22 04:30N 46°05' W 001°34'2 3.0
2018-Jun-22 04:00N 46°05' W 001°36'0 0.6
2018-Jun-22 03:30N 46°05' W 001°35'0 0.6
2018-Jun-22 03:00N 46°05' W 001°36'0 0.1
2018-Jun-22 02:30N 46°05' W 001°36'0 0.5
2018-Jun-22 02:00N 46°05' W 001°35'2 4.5
2018-Jun-22 01:30N 46°07' W 001°38'6 9.2
2018-Jun-22 00:53N 46°11' W 001°42'5 9.1
2018-Jun-22 00:23N 46°15' W 001°46'3 8.9
2018-Jun-22 00:00N 46°18' W 001°49'5 9.5
2018-Jun-21 23:30N 46°22' W 001°53'5 9.9
2018-Jun-21 23:00N 46°26' W 001°56'5 9.5
2018-Jun-21 22:30N 46°30' W 002°01'5 9.6
2018-Jun-21 22:00N 46°34' W 002°05'510.1
2018-Jun-21 21:30N 46°38' W 002°09'48 9.6
2018-Jun-21 16:29N 47°15' W 002°54'5 9.4
2018-Jun-21 16:00N 47°18' W 002°59'5 9.2
2018-Jun-21 15:30N 47°22' W 003°03'5 9.6
2018-Jun-21 15:00N 47°25' W 003°08'5 9.4
2018-Jun-21 14:30N 47°29' W 003°13'5 9.9
2018-Jun-21 14:00N 47°33' W 003°17'510.2
2018-Jun-21 13:30N 47°37' W 003°21'5 9.7
2018-Jun-21 13:00N 47°42' W 003°22'3 6.9
2018-Jun-21 12:30N 47°45' W 003°19'0 0.0
2018-Jun-21 12:00N 47°45' W 003°19'0 0.0
2018-Jun-21 11:30N 47°45' W 003°19'0 0.0
2018-Jun-21 11:00N 47°45' W 003°19'0 0.0
2018-Jun-21 10:30N 47°45' W 003°19'0 0.0
2018-Jun-21 10:00N 47°45' W 003°19'0 0.0
2018-Jun-21 09:30N 47°45' W 003°19'1 1.6
2018-Jun-21 09:00N 47°44' W 003°20'1 1.4
2018-Jun-21 08:30N 47°44' W 003°21'0 0.0
2018-Jun-21 08:00N 47°44' W 003°21'0 0.0
2018-Jun-21 07:31N 47°44' W 003°21'0 0.0
2018-Jun-21 07:00N 47°44' W 003°21'0 0.0
2018-Jun-21 06:31N 47°44' W 003°21'0 0.0
2018-Jun-21 06:01N 47°44' W 003°21'0 0.0
2018-Jun-21 05:31N 47°44' W 003°21'0 0.0
2018-Jun-21 05:01N 47°44' W 003°21'0 0.0
2018-Jun-21 04:30N 47°44' W 003°21'2 4.8
2018-Jun-21 04:01N 47°42' W 003°22'3 5.2
2018-Jun-21 03:30N 47°39' W 003°23'4 8.7
2018-Jun-21 03:00N 47°36' W 003°20'4 8.5
2018-Jun-21 02:30N 47°32' W 003°16'4 8.5
2018-Jun-21 02:00N 47°29' W 003°12'5 9.2
2018-Jun-21 01:30N 47°25' W 003°08'4 8.8
2018-Jun-21 01:00N 47°22' W 003°04'4 8.3
2018-Jun-21 00:30N 47°19' W 002°60'4 8.4
2018-Jun-20 23:59N 47°16' W 002°55'4 8.5
2018-Jun-20 23:30N 47°13' W 002°51'4 8.5
2018-Jun-20 23:00N 47°09' W 002°48'4 8.1
2018-Jun-20 22:30N 47°06' W 002°44'4 8.0
2018-Jun-20 22:00N 47°03' W 002°40'6 7.9
2018-Jun-20 21:12N 46°58' W 002°34'21 8.0
2018-Jun-20 18:32N 46°42' W 002°13'3 9.2
2018-Jun-20 18:15N 46°40' W 002°11'3 9.1
2018-Jun-20 17:58N 46°38' W 002°09'4 8.7
2018-Jun-20 17:30N 46°35' W 002°05'4 8.7
2018-Jun-20 17:00N 46°31' W 002°02'4 8.7
2018-Jun-20 16:30N 46°28' W 001°58'4 8.8
2018-Jun-20 16:00N 46°24' W 001°54'5 9.0
2018-Jun-20 15:30N 46°21' W 001°50'4 8.8
2018-Jun-20 15:00N 46°17' W 001°47'5 8.9
2018-Jun-20 14:28N 46°13' W 001°43'4 9.0
2018-Jun-20 14:00N 46°10' W 001°39'5 9.0
2018-Jun-20 13:30N 46°06' W 001°36'1 1.1
2018-Jun-20 13:00N 46°05' W 001°36'0 0.2
2018-Jun-20 12:30N 46°05' W 001°36'0 0.1
2018-Jun-20 12:00N 46°05' W 001°36'0 0.1
2018-Jun-20 11:30N 46°05' W 001°36'0 0.4
2018-Jun-20 11:00N 46°05' W 001°36'0 0.1
2018-Jun-20 10:30N 46°05' W 001°36'0 0.1
2018-Jun-20 09:59N 46°05' W 001°36'2 4.9
2018-Jun-20 09:30N 46°07' W 001°38'5 9.8
2018-Jun-20 08:59N 46°11' W 001°42'510.1
2018-Jun-20 08:30N 46°15' W 001°46'510.3
2018-Jun-20 08:00N 46°19' W 001°50'510.5
2018-Jun-20 07:30N 46°24' W 001°54'510.1
2018-Jun-20 07:00N 46°28' W 001°59'510.2
2018-Jun-20 06:30N 46°32' W 002°02'510.2
2018-Jun-20 06:00N 46°36' W 002°07'510.0
2018-Jun-20 05:28N 46°41' W 002°11'5 9.7
2018-Jun-20 04:58N 46°45' W 002°15'5 9.6
2018-Jun-20 04:29N 46°48' W 002°20'5 9.8
2018-Jun-20 03:58N 46°52' W 002°25'5 9.4
2018-Jun-20 03:24N 46°56' W 002°30'4 9.4
2018-Jun-20 03:00N 46°59' W 002°33'5 9.3
2018-Jun-20 02:29N 47°02' W 002°38'4 9.2
2018-Jun-20 02:00N 47°06' W 002°43'5 9.4
2018-Jun-20 01:27N 47°09' W 002°48'5 9.6
2018-Jun-20 00:55N 47°13' W 002°53'4 9.9
2018-Jun-20 00:30N 47°16' W 002°57'510.0
2018-Jun-20 00:00N 47°20' W 003°01'5 9.9
2018-Jun-19 23:29N 47°24' W 003°06'5 9.6
2018-Jun-19 23:00N 47°27' W 003°11'510.1
2018-Jun-19 22:30N 47°31' W 003°16'510.4
2018-Jun-19 22:00N 47°36' W 003°20'510.0
2018-Jun-19 21:30N 47°41' W 003°22'4 8.7
2018-Jun-19 21:00N 47°45' W 003°20'0 0.7
2018-Jun-19 20:30N 47°45' W 003°19'0 0.0
2018-Jun-19 20:00N 47°45' W 003°19'0 0.0
2018-Jun-19 19:30N 47°45' W 003°19'0 0.0
2018-Jun-19 18:59N 47°45' W 003°19'0 0.0
2018-Jun-19 18:30N 47°45' W 003°19'1 2.7
2018-Jun-19 18:00N 47°44' W 003°21'0 0.0
2018-Jun-19 17:30N 47°44' W 003°21'0 0.0
2018-Jun-19 17:00N 47°44' W 003°21'0 0.0
2018-Jun-19 16:30N 47°44' W 003°21'0 0.0
2018-Jun-19 16:00N 47°44' W 003°21'0 0.0
2018-Jun-19 15:30N 47°44' W 003°21'0 0.0
2018-Jun-19 15:00N 47°44' W 003°21'0 0.1
2018-Jun-19 14:30N 47°44' W 003°21'3 6.8
2018-Jun-19 14:00N 47°41' W 003°24'4 7.6
2018-Jun-19 13:30N 47°38' W 003°21'5 9.2
2018-Jun-19 13:00N 47°34' W 003°17'5 9.1
2018-Jun-19 12:30N 47°31' W 003°13'5 9.4
2018-Jun-19 12:00N 47°27' W 003°09'5 9.7
2018-Jun-19 11:30N 47°23' W 003°05'5 9.0
2018-Jun-19 11:00N 47°19' W 003°01'5 9.0
2018-Jun-19 10:30N 47°16' W 002°56'4 9.0
2018-Jun-19 10:00N 47°13' W 002°52'5 9.2
2018-Jun-19 09:30N 47°09' W 002°47'5 8.7
2018-Jun-19 08:58N 47°06' W 002°43'4 8.5
2018-Jun-19 08:30N 47°03' W 002°39'4 8.4
2018-Jun-19 08:00N 46°60' W 002°35'4 8.4
2018-Jun-19 07:29N 46°56' W 002°31'4 8.1
2018-Jun-19 07:00N 46°53' W 002°27'5 8.5
2018-Jun-19 06:25N 46°50' W 002°22'4 8.2
2018-Jun-19 05:54N 46°47' W 002°18'3 8.4
2018-Jun-19 05:30N 46°44' W 002°15'8 9.0
2018-Jun-19 04:35N 46°38' W 002°07'1 8.6
2018-Jun-19 04:30N 46°37' W 002°07'4 8.6
2018-Jun-19 04:01N 46°34' W 002°03'4 8.5
2018-Jun-19 03:30N 46°30' W 001°60'4 8.5
2018-Jun-19 03:00N 46°27' W 001°56'4 8.9
2018-Jun-19 02:30N 46°23' W 001°52'5 9.1
2018-Jun-19 02:00N 46°19' W 001°48'5 9.2
2018-Jun-19 01:30N 46°16' W 001°44'5 9.1
2018-Jun-19 01:00N 46°12' W 001°40'5 9.1
2018-Jun-19 00:30N 46°08' W 001°37'3 5.3
2018-Jun-18 23:58N 46°06' W 001°35'0 0.2
2018-Jun-18 23:28N 46°06' W 001°35'1 1.7
2018-Jun-18 23:00N 46°06' W 001°33'0 0.1
2018-Jun-18 22:30N 46°06' W 001°33'0 0.7
2018-Jun-18 22:01N 46°06' W 001°34'1 1.5
2018-Jun-18 21:30N 46°06' W 001°35'4 5.9
2018-Jun-18 20:53N 46°09' W 001°38'510.3
2018-Jun-18 20:26N 46°13' W 001°41'410.2
2018-Jun-18 20:00N 46°17' W 001°44'510.4
2018-Jun-18 19:30N 46°22' W 001°46'510.2
2018-Jun-18 19:00N 46°27' W 001°47'3 6.4
2018-Jun-18 18:30N 46°30' W 001°48'0 0.2
2018-Jun-18 18:00N 46°30' W 001°48'0 0.0
2018-Jun-18 17:30N 46°30' W 001°48'0 0.0
2018-Jun-18 17:00N 46°30' W 001°48'1 1.7
2018-Jun-18 16:30N 46°29' W 001°47'3 5.2
2018-Jun-18 16:00N 46°27' W 001°47'3 6.0
2018-Jun-18 15:30N 46°24' W 001°46'3 6.2
2018-Jun-18 15:00N 46°21' W 001°45'3 5.9
2018-Jun-18 14:30N 46°18' W 001°43'3 6.7
2018-Jun-18 14:00N 46°15' W 001°42'3 6.5
2018-Jun-18 13:30N 46°12' W 001°40'3 6.7
2018-Jun-18 13:00N 46°09' W 001°38'3 6.5
2018-Jun-18 12:30N 46°06' W 001°36'1 1.7
2018-Jun-18 12:00N 46°05' W 001°36'0 0.2
2018-Jun-18 11:30N 46°05' W 001°36'0 0.5
2018-Jun-18 11:00N 46°05' W 001°36'0 0.4
2018-Jun-18 10:29N 46°05' W 001°36'0 0.2
2018-Jun-18 10:00N 46°05' W 001°35'3 5.3
2018-Jun-18 09:30N 46°07' W 001°38'610.2
2018-Jun-18 08:54N 46°13' W 001°41'410.3
2018-Jun-18 08:30N 46°17' W 001°43'510.4
2018-Jun-18 08:00N 46°22' W 001°46'510.3
2018-Jun-18 07:30N 46°27' W 001°47'3 6.5
2018-Jun-18 07:00N 46°30' W 001°48'0 0.1
2018-Jun-18 06:30N 46°30' W 001°48'0 0.0
2018-Jun-18 06:01N 46°30' W 001°48'0 0.0
2018-Jun-18 05:31N 46°30' W 001°48'0 0.7
2018-Jun-18 05:01N 46°30' W 001°48'4 7.0
2018-Jun-18 04:30N 46°26' W 001°48'4 8.0
2018-Jun-18 04:01N 46°22' W 001°46'4 8.3
2018-Jun-18 03:31N 46°18' W 001°43'4 8.9
2018-Jun-18 03:00N 46°14' W 001°41'4 8.7
2018-Jun-18 02:31N 46°11' W 001°38'4 8.8
2018-Jun-18 02:00N 46°07' W 001°35'1 2.0
2018-Jun-18 01:30N 46°06' W 001°34'1 1.4
2018-Jun-18 01:00N 46°06' W 001°33'0 1.0
2018-Jun-18 00:30N 46°06' W 001°34'0 0.8
2018-Jun-18 00:00N 46°06' W 001°35'0 0.7
2018-Jun-17 23:28N 46°06' W 001°35'0 0.6
2018-Jun-17 23:00N 46°06' W 001°36'3 5.4
2018-Jun-17 22:29N 46°07' W 001°39'1010.6
2018-Jun-17 21:34N 46°14' W 001°49'110.6
2018-Jun-17 21:29N 46°14' W 001°50'610.9
2018-Jun-17 20:56N 46°18' W 001°57'511.3
2018-Jun-17 20:31N 46°22' W 002°02'611.1
2018-Jun-17 20:01N 46°26' W 002°07'611.1
2018-Jun-17 19:30N 46°29' W 002°13'6510.8
2018-Jun-17 13:30N 47°13' W 003°25'710.5
2018-Jun-17 12:52N 47°17' W 003°32'410.4
2018-Jun-17 12:29N 47°20' W 003°36'610.8
2018-Jun-17 11:57N 47°23' W 003°43'510.7
2018-Jun-17 11:30N 47°26' W 003°49'2811.0
2018-Jun-17 08:58N 47°43' W 004°21'1211.1
2018-Jun-17 07:53N 47°52' W 004°33'1111.6
2018-Jun-17 06:59N 48°00' W 004°43'511.3
2018-Jun-17 06:30N 48°05' W 004°45'510.7
2018-Jun-17 06:01N 48°11' W 004°46'510.7
2018-Jun-17 05:30N 48°16' W 004°46'5 9.6
2018-Jun-17 05:00N 48°21' W 004°48'4 7.6
2018-Jun-17 04:30N 48°24' W 004°49'4 8.6
2018-Jun-17 04:01N 48°29' W 004°50'4 8.0
2018-Jun-17 03:30N 48°33' W 004°50'4 7.2
2018-Jun-17 03:00N 48°36' W 004°47'4 7.5
2018-Jun-17 02:30N 48°38' W 004°43'5 9.4
2018-Jun-17 02:00N 48°40' W 004°37'2411.4
2018-Jun-16 23:52N 48°47' W 004°01'5 9.2
2018-Jun-16 23:23N 48°43' W 003°57'0 0.6
2018-Jun-16 22:42N 48°43' W 003°58'33 1.9
2018-Jun-16 05:07N 48°52' W 003°09'0 2.7
2018-Jun-16 04:58N 48°53' W 003°09'0 0.2
2018-Jun-16 04:21N 48°53' W 003°09'3 7.4
2018-Jun-16 04:00N 48°55' W 003°11'13 4.6
2018-Jun-16 01:13N 48°54' W 002°52'6 1.8
2018-Jun-15 21:58N 48°49' W 002°49'7 1.2
2018-Jun-15 16:12N 48°43' W 002°44'3 8.4
2018-Jun-15 15:48N 48°46' W 002°46'4 9.5
2018-Jun-15 15:25N 48°49' W 002°49'0 0.0
2018-Jun-15 14:54N 48°49' W 002°49'0 0.0
2018-Jun-15 14:15N 48°49' W 002°49'0 0.2
2018-Jun-15 13:58N 48°49' W 002°49'50 4.8
2018-Jun-15 03:33N 48°47' W 004°05'711.8
2018-Jun-15 02:58N 48°45' W 004°15'712.0
2018-Jun-15 02:22N 48°43' W 004°26'512.1
2018-Jun-15 01:58N 48°42' W 004°33'511.4
2018-Jun-15 01:30N 48°40' W 004°40'611.1
2018-Jun-15 01:00N 48°37' W 004°47'612.2
2018-Jun-15 00:30N 48°31' W 004°50'611.2
2018-Jun-15 00:00N 48°25' W 004°50'612.2
2018-Jun-14 23:30N 48°19' W 004°47'510.7
2018-Jun-14 23:00N 48°14' W 004°45'510.5
2018-Jun-14 22:30N 48°09' W 004°45'510.1
2018-Jun-14 22:00N 48°04' W 004°46'5 9.8
2018-Jun-14 21:30N 47°59' W 004°43'610.3
2018-Jun-14 20:58N 47°55' W 004°38'13 9.6
2018-Jun-14 19:38N 47°45' W 004°25'6 8.9
2018-Jun-14 18:58N 47°44' W 004°17'9 7.9
2018-Jun-14 17:53N 47°49' W 004°07'8 7.9
2018-Jun-14 16:49N 47°58' W 004°06'0 0.5
2018-Jun-14 15:58N 47°58' W 004°06'5 2.7
2018-Jun-14 13:59N 47°53' W 004°07'6 5.5
2018-Jun-14 12:58N 47°48' W 004°03'12 7.5
2018-Jun-14 11:21N 47°42' W 003°47'2 7.1
2018-Jun-14 11:00N 47°41' W 003°44'3 6.9
2018-Jun-14 10:30N 47°39' W 003°40'4 7.1
2018-Jun-14 10:00N 47°37' W 003°36'4 7.1
2018-Jun-14 09:30N 47°34' W 003°32'4 7.6
2018-Jun-14 09:00N 47°32' W 003°27'4 7.7
2018-Jun-14 08:30N 47°30' W 003°23'4 8.2
2018-Jun-14 08:00N 47°27' W 003°18'4 8.5
2018-Jun-14 07:30N 47°25' W 003°13'5 9.0
2018-Jun-14 07:00N 47°22' W 003°07'4 8.1
2018-Jun-14 06:30N 47°20' W 003°02'4 7.4
2018-Jun-14 06:00N 47°17' W 002°58'4 7.9
2018-Jun-14 05:30N 47°14' W 002°55'4 8.0
2018-Jun-14 05:00N 47°11' W 002°51'5 8.3
2018-Jun-14 04:26N 47°08' W 002°46'4 8.4
2018-Jun-14 03:58N 47°05' W 002°42'4 8.5
2018-Jun-14 03:30N 47°02' W 002°39'4 8.5
2018-Jun-14 03:00N 46°59' W 002°34'4 8.3
2018-Jun-14 02:30N 46°56' W 002°30'4 8.1
2018-Jun-14 01:58N 46°53' W 002°26'  

Dump ship's entire track history